sensor_id;sensor_type;location;lat;lon;timestamp;temperature;humidity
17170;DHT22;8700;48.222;16.342;2024-03-23T00:53:35;14.50;99.90
17170;DHT22;8700;48.222;16.342;2024-03-23T00:56:56;14.60;99.90
17170;DHT22;8700;48.222;16.342;2024-03-23T01:00:18;14.70;99.90
17170;DHT22;8700;48.222;16.342;2024-03-23T01:03:38;14.70;99.90
17170;DHT22;8700;48.222;16.342;2024-03-23T01:06:59;14.60;99.90
17170;DHT22;8700;48.222;16.342;2024-03-23T01:10:21;14.60;99.90
17170;DHT22;8700;48.222;16.342;2024-03-23T01:13:42;14.50;99.90
17170;DHT22;8700;48.222;16.342;2024-03-23T01:17:03;14.60;99.90
17170;DHT22;8700;48.222;16.342;2024-03-23T01:20:24;14.60;99.90
17170;DHT22;8700;48.222;16.342;2024-03-23T01:23:45;14.50;99.90
17170;DHT22;8700;48.222;16.342;2024-03-23T01:27:07;14.60;99.90
17170;DHT22;8700;48.222;16.342;2024-03-23T01:30:30;14.70;99.90
17170;DHT22;8700;48.222;16.342;2024-03-23T01:33:50;14.80;99.90
17170;DHT22;8700;48.222;16.342;2024-03-23T01:37:11;14.80;99.90
17170;DHT22;8700;48.222;16.342;2024-03-23T01:40:32;14.70;99.90
17170;DHT22;8700;48.222;16.342;2024-03-23T01:43:55;14.70;99.90
17170;DHT22;8700;48.222;16.342;2024-03-23T01:47:16;14.60;99.90
17170;DHT22;8700;48.222;16.342;2024-03-23T01:50:37;14.60;99.90
17170;DHT22;8700;48.222;16.342;2024-03-23T01:53:59;14.60;99.90
17170;DHT22;8700;48.222;16.342;2024-03-23T01:57:22;14.60;99.90
17170;DHT22;8700;48.222;16.342;2024-03-23T02:00:45;14.80;99.90
17170;DHT22;8700;48.222;16.342;2024-03-23T02:04:05;14.90;99.90
17170;DHT22;8700;48.222;16.342;2024-03-23T02:07:27;14.80;99.90
17170;DHT22;8700;48.222;16.342;2024-03-23T02:10:47;14.90;99.90
17170;DHT22;8700;48.222;16.342;2024-03-23T02:14:09;15.00;99.90
17170;DHT22;8700;48.222;16.342;2024-03-23T02:17:32;15.00;99.90
17170;DHT22;8700;48.222;16.342;2024-03-23T02:20:54;14.90;99.90
17170;DHT22;8700;48.222;16.342;2024-03-23T02:24:15;15.00;99.90
17170;DHT22;8700;48.222;16.342;2024-03-23T02:27:36;15.00;99.90
17170;DHT22;8700;48.222;16.342;2024-03-23T02:30:59;15.00;99.90
17170;DHT22;8700;48.222;16.342;2024-03-23T02:34:21;14.90;99.90
17170;DHT22;8700;48.222;16.342;2024-03-23T02:37:41;15.00;99.90
17170;DHT22;8700;48.222;16.342;2024-03-23T02:41:05;14.90;99.90
17170;DHT22;8700;48.222;16.342;2024-03-23T02:44:26;14.80;99.90
17170;DHT22;8700;48.222;16.342;2024-03-23T02:47:46;14.80;99.90
17170;DHT22;8700;48.222;16.342;2024-03-23T02:51:11;14.90;99.90
17170;DHT22;8700;48.222;16.342;2024-03-23T02:54:32;15.00;99.90
17170;DHT22;8700;48.222;16.342;2024-03-23T02:57:54;15.00;99.90
17170;DHT22;8700;48.222;16.342;2024-03-23T03:01:15;14.80;99.90
17170;DHT22;8700;48.222;16.342;2024-03-23T03:04:35;14.80;99.90
17170;DHT22;8700;48.222;16.342;2024-03-23T03:07:56;14.70;99.90
17170;DHT22;8700;48.222;16.342;2024-03-23T03:11:18;14.40;99.90
17170;DHT22;8700;48.222;16.342;2024-03-23T03:14:39;14.30;99.90
17170;DHT22;8700;48.222;16.342;2024-03-23T03:18:00;14.40;99.90
17170;DHT22;8700;48.222;16.342;2024-03-23T03:21:22;14.50;99.90
17170;DHT22;8700;48.222;16.342;2024-03-23T03:24:43;14.50;99.90
17170;DHT22;8700;48.222;16.342;2024-03-23T03:28:05;14.40;99.90
17170;DHT22;8700;48.222;16.342;2024-03-23T03:31:27;14.40;99.90
17170;DHT22;8700;48.222;16.342;2024-03-23T03:34:48;14.50;99.90
17170;DHT22;8700;48.222;16.342;2024-03-23T03:38:09;14.50;99.90
17170;DHT22;8700;48.222;16.342;2024-03-23T03:41:31;14.40;99.90
17170;DHT22;8700;48.222;16.342;2024-03-23T03:44:52;14.50;99.90
17170;DHT22;8700;48.222;16.342;2024-03-23T03:48:15;14.50;99.90
17170;DHT22;8700;48.222;16.342;2024-03-23T03:51:35;14.40;99.90
17170;DHT22;8700;48.222;16.342;2024-03-23T03:55:01;14.20;99.90
17170;DHT22;8700;48.222;16.342;2024-03-23T03:58:23;14.20;99.90
17170;DHT22;8700;48.222;16.342;2024-03-23T04:01:43;14.30;99.90
17170;DHT22;8700;48.222;16.342;2024-03-23T04:05:07;14.40;99.90
17170;DHT22;8700;48.222;16.342;2024-03-23T04:08:28;14.40;99.90
17170;DHT22;8700;48.222;16.342;2024-03-23T04:11:49;14.20;99.90
17170;DHT22;8700;48.222;16.342;2024-03-23T04:15:10;14.10;99.90
17170;DHT22;8700;48.222;16.342;2024-03-23T04:18:31;14.20;99.90
17170;DHT22;8700;48.222;16.342;2024-03-23T04:21:53;14.20;99.90
17170;DHT22;8700;48.222;16.342;2024-03-23T04:25:15;14.30;99.90
17170;DHT22;8700;48.222;16.342;2024-03-23T04:28:36;14.40;99.90
17170;DHT22;8700;48.222;16.342;2024-03-23T04:31:57;14.40;99.90
17170;DHT22;8700;48.222;16.342;2024-03-23T04:35:18;14.40;99.90
17170;DHT22;8700;48.222;16.342;2024-03-23T04:38:43;14.20;99.90
17170;DHT22;8700;48.222;16.342;2024-03-23T04:42:10;14.10;99.90
17170;DHT22;8700;48.222;16.342;2024-03-23T04:45:31;14.10;99.90
17170;DHT22;8700;48.222;16.342;2024-03-23T04:48:52;14.20;99.90
17170;DHT22;8700;48.222;16.342;2024-03-23T04:52:13;14.20;99.90
17170;DHT22;8700;48.222;16.342;2024-03-23T04:55:36;14.20;99.90
17170;DHT22;8700;48.222;16.342;2024-03-23T04:58:57;14.40;99.90
17170;DHT22;8700;48.222;16.342;2024-03-23T05:02:21;14.50;99.90
17170;DHT22;8700;48.222;16.342;2024-03-23T05:05:42;14.50;99.90
17170;DHT22;8700;48.222;16.342;2024-03-23T05:09:03;14.60;99.90
17170;DHT22;8700;48.222;16.342;2024-03-23T05:12:27;14.60;99.90
17170;DHT22;8700;48.222;16.342;2024-03-23T05:15:52;14.50;99.90
17170;DHT22;8700;48.222;16.342;2024-03-23T05:19:13;14.40;99.90
17170;DHT22;8700;48.222;16.342;2024-03-23T05:22:34;14.30;99.90
17170;DHT22;8700;48.222;16.342;2024-03-23T05:25:55;14.30;99.90
17170;DHT22;8700;48.222;16.342;2024-03-23T05:29:17;14.30;99.90
17170;DHT22;8700;48.222;16.342;2024-03-23T05:32:38;14.30;99.90
17170;DHT22;8700;48.222;16.342;2024-03-23T05:36:01;14.30;99.90
17170;DHT22;8700;48.222;16.342;2024-03-23T05:39:23;14.40;99.90
17170;DHT22;8700;48.222;16.342;2024-03-23T05:42:44;14.50;99.90
17170;DHT22;8700;48.222;16.342;2024-03-23T05:46:06;14.60;99.90
17170;DHT22;8700;48.222;16.342;2024-03-23T05:49:28;14.60;99.90
17170;DHT22;8700;48.222;16.342;2024-03-23T05:52:49;14.70;99.90
17170;DHT22;8700;48.222;16.342;2024-03-23T05:56:10;14.90;99.90
17170;DHT22;8700;48.222;16.342;2024-03-23T05:59:31;15.00;99.90
17170;DHT22;8700;48.222;16.342;2024-03-23T06:02:53;15.00;99.90
17170;DHT22;8700;48.222;16.342;2024-03-23T06:06:13;15.10;99.90
17170;DHT22;8700;48.222;16.342;2024-03-23T06:09:34;15.20;99.90
17170;DHT22;8700;48.222;16.342;2024-03-23T06:12:55;15.30;99.90
17170;DHT22;8700;48.222;16.342;2024-03-23T06:16:17;15.50;99.90
17170;DHT22;8700;48.222;16.342;2024-03-23T06:19:44;15.70;99.90
17170;DHT22;8700;48.222;16.342;2024-03-23T06:23:06;15.90;99.90
17170;DHT22;8700;48.222;16.342;2024-03-23T06:26:26;15.70;99.90
17170;DHT22;8700;48.222;16.342;2024-03-23T06:29:47;15.60;99.90
17170;DHT22;8700;48.222;16.342;2024-03-23T06:33:08;15.40;99.90
17170;DHT22;8700;48.222;16.342;2024-03-23T06:36:30;15.30;99.90
17170;DHT22;8700;48.222;16.342;2024-03-23T06:39:51;15.20;99.90
17170;DHT22;8700;48.222;16.342;2024-03-23T06:43:12;15.10;99.90
17170;DHT22;8700;48.222;16.342;2024-03-23T06:46:32;15.10;99.90
17170;DHT22;8700;48.222;16.342;2024-03-23T06:49:53;15.20;99.90
17170;DHT22;8700;48.222;16.342;2024-03-23T06:53:15;15.30;99.90
17170;DHT22;8700;48.222;16.342;2024-03-23T06:56:36;15.30;99.90
17170;DHT22;8700;48.222;16.342;2024-03-23T06:59:56;15.40;99.90
17170;DHT22;8700;48.222;16.342;2024-03-23T07:03:18;15.40;99.90
17170;DHT22;8700;48.222;16.342;2024-03-23T07:06:42;15.40;99.90
17170;DHT22;8700;48.222;16.342;2024-03-23T07:10:06;15.40;99.90
17170;DHT22;8700;48.222;16.342;2024-03-23T07:13:28;15.40;99.90
17170;DHT22;8700;48.222;16.342;2024-03-23T07:16:49;15.40;99.90
17170;DHT22;8700;48.222;16.342;2024-03-23T07:20:11;15.60;99.90
17170;DHT22;8700;48.222;16.342;2024-03-23T07:23:33;15.80;99.90
17170;DHT22;8700;48.222;16.342;2024-03-23T07:26:55;16.00;99.90
17170;DHT22;8700;48.222;16.342;2024-03-23T07:30:18;16.20;99.90
17170;DHT22;8700;48.222;16.342;2024-03-23T07:33:42;16.30;99.90
17170;DHT22;8700;48.222;16.342;2024-03-23T07:37:02;16.20;99.90
17170;DHT22;8700;48.222;16.342;2024-03-23T07:40:24;16.30;99.90
17170;DHT22;8700;48.222;16.342;2024-03-23T07:43:47;16.50;99.90
17170;DHT22;8700;48.222;16.342;2024-03-23T07:47:07;16.30;99.90
17170;DHT22;8700;48.222;16.342;2024-03-23T07:50:29;16.30;99.90
17170;DHT22;8700;48.222;16.342;2024-03-23T07:53:49;16.40;99.90
17170;DHT22;8700;48.222;16.342;2024-03-23T07:57:11;16.20;99.90
17170;DHT22;8700;48.222;16.342;2024-03-23T08:00:33;16.30;99.90
17170;DHT22;8700;48.222;16.342;2024-03-23T08:03:54;16.30;99.90
17170;DHT22;8700;48.222;16.342;2024-03-23T08:07:14;16.30;99.90
17170;DHT22;8700;48.222;16.342;2024-03-23T08:10:35;16.20;99.90
17170;DHT22;8700;48.222;16.342;2024-03-23T08:13:56;16.10;99.90
17170;DHT22;8700;48.222;16.342;2024-03-23T08:17:19;16.30;99.90
17170;DHT22;8700;48.222;16.342;2024-03-23T08:20:40;16.50;99.90
17170;DHT22;8700;48.222;16.342;2024-03-23T08:24:00;16.60;99.90
17170;DHT22;8700;48.222;16.342;2024-03-23T08:27:21;16.90;99.90
17170;DHT22;8700;48.222;16.342;2024-03-23T08:30:41;16.70;99.90
17170;DHT22;8700;48.222;16.342;2024-03-23T08:34:05;17.00;99.90
17170;DHT22;8700;48.222;16.342;2024-03-23T08:37:26;17.20;99.90
17170;DHT22;8700;48.222;16.342;2024-03-23T08:40:47;16.90;99.90
17170;DHT22;8700;48.222;16.342;2024-03-23T08:44:09;16.90;99.90
17170;DHT22;8700;48.222;16.342;2024-03-23T08:47:30;17.40;99.90
17170;DHT22;8700;48.222;16.342;2024-03-23T08:51:00;17.70;99.80
17170;DHT22;8700;48.222;16.342;2024-03-23T08:54:21;17.60;99.90
17170;DHT22;8700;48.222;16.342;2024-03-23T08:57:43;17.60;99.60
17170;DHT22;8700;48.222;16.342;2024-03-23T09:01:04;17.90;99.70
17170;DHT22;8700;48.222;16.342;2024-03-23T09:04:26;18.30;98.60
17170;DHT22;8700;48.222;16.342;2024-03-23T09:07:48;18.20;98.00
17170;DHT22;8700;48.222;16.342;2024-03-23T09:11:11;18.60;97.30
17170;DHT22;8700;48.222;16.342;2024-03-23T09:14:33;20.10;96.80
17170;DHT22;8700;48.222;16.342;2024-03-23T09:17:53;21.50;91.40
17170;DHT22;8700;48.222;16.342;2024-03-23T09:21:14;23.30;89.80
17170;DHT22;8700;48.222;16.342;2024-03-23T09:24:37;23.80;76.80
17170;DHT22;8700;48.222;16.342;2024-03-23T09:27:58;23.50;76.40
17170;DHT22;8700;48.222;16.342;2024-03-23T09:31:19;24.00;71.90
17170;DHT22;8700;48.222;16.342;2024-03-23T09:34:42;24.10;69.40
17170;DHT22;8700;48.222;16.342;2024-03-23T09:38:02;24.60;68.40
17170;DHT22;8700;48.222;16.342;2024-03-23T09:41:24;25.40;66.00
17170;DHT22;8700;48.222;16.342;2024-03-23T09:44:45;25.60;64.80
17170;DHT22;8700;48.222;16.342;2024-03-23T09:48:08;25.60;63.90
17170;DHT22;8700;48.222;16.342;2024-03-23T09:51:29;25.40;62.40
17170;DHT22;8700;48.222;16.342;2024-03-23T09:54:50;25.10;61.50
17170;DHT22;8700;48.222;16.342;2024-03-23T09:58:15;24.40;62.80
17170;DHT22;8700;48.222;16.342;2024-03-23T10:01:36;24.70;62.90
17170;DHT22;8700;48.222;16.342;2024-03-23T10:04:58;24.60;62.20
17170;DHT22;8700;48.222;16.342;2024-03-23T10:08:19;25.10;62.10
17170;DHT22;8700;48.222;16.342;2024-03-23T10:11:40;25.20;61.20
17170;DHT22;8700;48.222;16.342;2024-03-23T10:15:16;24.80;61.80
17170;DHT22;8700;48.222;16.342;2024-03-23T10:18:39;25.30;62.20
17170;DHT22;8700;48.222;16.342;2024-03-23T10:22:00;26.20;62.20
17170;DHT22;8700;48.222;16.342;2024-03-23T10:25:23;26.70;59.20
17170;DHT22;8700;48.222;16.342;2024-03-23T10:28:57;26.70;58.90
17170;DHT22;8700;48.222;16.342;2024-03-23T10:32:22;27.40;57.00
17170;DHT22;8700;48.222;16.342;2024-03-23T10:35:43;28.30;56.10
17170;DHT22;8700;48.222;16.342;2024-03-23T10:39:07;30.00;55.10
17170;DHT22;8700;48.222;16.342;2024-03-23T10:42:27;30.00;53.60
17170;DHT22;8700;48.222;16.342;2024-03-23T10:45:49;29.60;52.30
17170;DHT22;8700;48.222;16.342;2024-03-23T10:49:12;29.60;52.20
17170;DHT22;8700;48.222;16.342;2024-03-23T10:52:33;29.90;51.90
17170;DHT22;8700;48.222;16.342;2024-03-23T10:55:56;29.80;51.30
17170;DHT22;8700;48.222;16.342;2024-03-23T10:59:16;30.30;50.40
17170;DHT22;8700;48.222;16.342;2024-03-23T11:02:38;30.90;49.20
17170;DHT22;8700;48.222;16.342;2024-03-23T11:06:02;30.60;49.20
17170;DHT22;8700;48.222;16.342;2024-03-23T11:09:41;30.60;48.00
17170;DHT22;8700;48.222;16.342;2024-03-23T11:13:22;29.60;49.30
17170;DHT22;8700;48.222;16.342;2024-03-23T11:16:44;29.90;48.30
17170;DHT22;8700;48.222;16.342;2024-03-23T11:20:05;30.00;47.80
17170;DHT22;8700;48.222;16.342;2024-03-23T11:23:30;28.60;49.20
17170;DHT22;8700;48.222;16.342;2024-03-23T11:26:50;26.80;50.50
17170;DHT22;8700;48.222;16.342;2024-03-23T11:30:13;26.90;51.00
17170;DHT22;8700;48.222;16.342;2024-03-23T11:33:34;28.20;50.70
17170;DHT22;8700;48.222;16.342;2024-03-23T11:37:04;27.00;51.00
17170;DHT22;8700;48.222;16.342;2024-03-23T11:40:27;26.50;53.70
17170;DHT22;8700;48.222;16.342;2024-03-23T11:43:47;27.20;52.60
17170;DHT22;8700;48.222;16.342;2024-03-23T11:47:09;27.40;52.20
17170;DHT22;8700;48.222;16.342;2024-03-23T11:50:30;28.30;51.70
17170;DHT22;8700;48.222;16.342;2024-03-23T11:54:06;28.50;51.30
17170;DHT22;8700;48.222;16.342;2024-03-23T11:57:29;28.40;50.70
17170;DHT22;8700;48.222;16.342;2024-03-23T12:00:50;27.20;51.70
17170;DHT22;8700;48.222;16.342;2024-03-23T12:04:12;25.80;53.00
17170;DHT22;8700;48.222;16.342;2024-03-23T12:07:33;25.50;52.70
17170;DHT22;8700;48.222;16.342;2024-03-23T12:11:05;24.80;53.70
17170;DHT22;8700;48.222;16.342;2024-03-23T12:14:27;24.30;54.90
17170;DHT22;8700;48.222;16.342;2024-03-23T12:17:51;24.60;54.20
17170;DHT22;8700;48.222;16.342;2024-03-23T12:21:12;24.10;54.50
17170;DHT22;8700;48.222;16.342;2024-03-23T12:24:33;24.00;54.30
17170;DHT22;8700;48.222;16.342;2024-03-23T12:27:58;23.80;55.20
17170;DHT22;8700;48.222;16.342;2024-03-23T12:31:19;23.70;55.30
17170;DHT22;8700;48.222;16.342;2024-03-23T12:34:41;23.70;54.70
17170;DHT22;8700;48.222;16.342;2024-03-23T12:38:01;23.60;54.60
17170;DHT22;8700;48.222;16.342;2024-03-23T12:41:22;23.00;55.80
17170;DHT22;8700;48.222;16.342;2024-03-23T12:44:43;23.00;56.40
17170;DHT22;8700;48.222;16.342;2024-03-23T12:48:06;23.10;55.50
17170;DHT22;8700;48.222;16.342;2024-03-23T12:51:29;22.90;56.00
17170;DHT22;8700;48.222;16.342;2024-03-23T12:54:49;22.80;57.00
17170;DHT22;8700;48.222;16.342;2024-03-23T12:58:10;22.40;60.10
17170;DHT22;8700;48.222;16.342;2024-03-23T13:01:31;20.80;66.70
17170;DHT22;8700;48.222;16.342;2024-03-23T13:04:53;20.30;69.30
17170;DHT22;8700;48.222;16.342;2024-03-23T13:08:14;20.10;71.30
17170;DHT22;8700;48.222;16.342;2024-03-23T13:11:36;19.50;74.70
17170;DHT22;8700;48.222;16.342;2024-03-23T13:14:56;19.20;77.20
17170;DHT22;8700;48.222;16.342;2024-03-23T13:18:17;19.10;79.50
17170;DHT22;8700;48.222;16.342;2024-03-23T13:21:38;18.30;83.20
17170;DHT22;8700;48.222;16.342;2024-03-23T13:25:00;18.20;86.90
17170;DHT22;8700;48.222;16.342;2024-03-23T13:28:22;18.00;90.70
17170;DHT22;8700;48.222;16.342;2024-03-23T13:31:42;17.70;92.60
17170;DHT22;8700;48.222;16.342;2024-03-23T13:35:03;17.30;94.70
17170;DHT22;8700;48.222;16.342;2024-03-23T13:38:27;17.10;97.50
17170;DHT22;8700;48.222;16.342;2024-03-23T13:41:48;16.40;99.90
17170;DHT22;8700;48.222;16.342;2024-03-23T13:45:09;16.10;99.90
17170;DHT22;8700;48.222;16.342;2024-03-23T13:48:32;15.90;99.90
17170;DHT22;8700;48.222;16.342;2024-03-23T13:51:53;15.50;99.90
17170;DHT22;8700;48.222;16.342;2024-03-23T13:55:16;15.30;99.90
17170;DHT22;8700;48.222;16.342;2024-03-23T13:58:37;15.20;99.90
17170;DHT22;8700;48.222;16.342;2024-03-23T14:01:59;15.10;99.90
17170;DHT22;8700;48.222;16.342;2024-03-23T14:05:19;14.70;99.90
17170;DHT22;8700;48.222;16.342;2024-03-23T14:08:40;14.40;99.90
17170;DHT22;8700;48.222;16.342;2024-03-23T14:12:04;14.10;99.90
17170;DHT22;8700;48.222;16.342;2024-03-23T14:15:29;13.70;99.90
17170;DHT22;8700;48.222;16.342;2024-03-23T14:18:50;13.70;99.90
17170;DHT22;8700;48.222;16.342;2024-03-23T14:22:11;14.00;99.90
17170;DHT22;8700;48.222;16.342;2024-03-23T14:25:31;13.80;99.90
17170;DHT22;8700;48.222;16.342;2024-03-23T14:28:54;13.50;99.90
17170;DHT22;8700;48.222;16.342;2024-03-23T14:32:15;13.50;99.90
17170;DHT22;8700;48.222;16.342;2024-03-23T14:35:35;13.50;99.90
17170;DHT22;8700;48.222;16.342;2024-03-23T14:38:56;13.30;99.90
17170;DHT22;8700;48.222;16.342;2024-03-23T14:42:17;12.90;99.90
17170;DHT22;8700;48.222;16.342;2024-03-23T14:49:25;12.50;99.90
17170;DHT22;8700;48.222;16.342;2024-03-23T14:52:46;12.30;99.90
17170;DHT22;8700;48.222;16.342;2024-03-23T14:56:07;11.80;99.90
17170;DHT22;8700;48.222;16.342;2024-03-23T14:59:30;11.70;99.90
17170;DHT22;8700;48.222;16.342;2024-03-23T15:02:52;11.80;99.90
17170;DHT22;8700;48.222;16.342;2024-03-23T15:06:14;12.10;99.90
17170;DHT22;8700;48.222;16.342;2024-03-23T15:09:36;12.30;99.90
17170;DHT22;8700;48.222;16.342;2024-03-23T15:12:56;11.70;99.90
17170;DHT22;8700;48.222;16.342;2024-03-23T15:16:17;11.60;99.90
17170;DHT22;8700;48.222;16.342;2024-03-23T15:19:41;11.80;99.90
17170;DHT22;8700;48.222;16.342;2024-03-23T15:23:05;11.40;99.90
17170;DHT22;8700;48.222;16.342;2024-03-23T15:26:27;11.20;99.90
17170;DHT22;8700;48.222;16.342;2024-03-23T15:29:48;10.80;99.90
17170;DHT22;8700;48.222;16.342;2024-03-23T15:33:08;11.10;99.90
17170;DHT22;8700;48.222;16.342;2024-03-23T15:36:31;11.00;99.90
17170;DHT22;8700;48.222;16.342;2024-03-23T15:39:51;10.90;99.90
17170;DHT22;8700;48.222;16.342;2024-03-23T15:43:12;10.80;99.90
17170;DHT22;8700;48.222;16.342;2024-03-23T15:46:33;10.60;99.90
17170;DHT22;8700;48.222;16.342;2024-03-23T15:49:54;10.50;99.90
17170;DHT22;8700;48.222;16.342;2024-03-23T15:53:17;10.40;99.90
17170;DHT22;8700;48.222;16.342;2024-03-23T15:56:37;10.50;99.90
17170;DHT22;8700;48.222;16.342;2024-03-23T15:59:59;10.70;99.90
17170;DHT22;8700;48.222;16.342;2024-03-23T16:03:19;10.30;99.90
17170;DHT22;8700;48.222;16.342;2024-03-23T16:06:40;10.60;99.90
17170;DHT22;8700;48.222;16.342;2024-03-23T16:10:06;10.70;99.90
17170;DHT22;8700;48.222;16.342;2024-03-23T16:13:29;10.50;99.90
17170;DHT22;8700;48.222;16.342;2024-03-23T16:16:51;10.80;99.90
17170;DHT22;8700;48.222;16.342;2024-03-23T16:20:12;10.90;99.90
17170;DHT22;8700;48.222;16.342;2024-03-23T16:23:34;11.00;99.90
17170;DHT22;8700;48.222;16.342;2024-03-23T16:26:58;10.80;99.90
17170;DHT22;8700;48.222;16.342;2024-03-23T16:30:20;11.20;99.90
17170;DHT22;8700;48.222;16.342;2024-03-23T16:33:41;11.40;99.90
17170;DHT22;8700;48.222;16.342;2024-03-23T16:37:02;11.50;99.90
17170;DHT22;8700;48.222;16.342;2024-03-23T16:40:23;11.70;99.90
17170;DHT22;8700;48.222;16.342;2024-03-23T16:43:46;11.60;99.90
17170;DHT22;8700;48.222;16.342;2024-03-23T16:47:07;11.60;99.90
17170;DHT22;8700;48.222;16.342;2024-03-23T16:50:28;11.60;99.90
17170;DHT22;8700;48.222;16.342;2024-03-23T16:53:49;11.50;99.90
17170;DHT22;8700;48.222;16.342;2024-03-23T16:57:10;11.60;99.90
17170;DHT22;8700;48.222;16.342;2024-03-23T17:00:32;11.40;99.90
17170;DHT22;8700;48.222;16.342;2024-03-23T17:03:54;11.60;99.90
17170;DHT22;8700;48.222;16.342;2024-03-23T17:07:14;11.50;99.90
17170;DHT22;8700;48.222;16.342;2024-03-23T17:10:35;11.30;99.90
17170;DHT22;8700;48.222;16.342;2024-03-23T17:13:56;10.90;99.90
17170;DHT22;8700;48.222;16.342;2024-03-23T17:17:19;10.90;99.90
17170;DHT22;8700;48.222;16.342;2024-03-23T17:20:40;10.80;99.90
17170;DHT22;8700;48.222;16.342;2024-03-23T17:24:01;10.10;99.90
17170;DHT22;8700;48.222;16.342;2024-03-23T17:27:22;10.20;99.90
17170;DHT22;8700;48.222;16.342;2024-03-23T17:30:43;10.20;99.90
17170;DHT22;8700;48.222;16.342;2024-03-23T17:34:05;10.20;99.90
17170;DHT22;8700;48.222;16.342;2024-03-23T17:37:26;10.30;99.90
17170;DHT22;8700;48.222;16.342;2024-03-23T17:40:47;10.60;99.90
17170;DHT22;8700;48.222;16.342;2024-03-23T17:44:08;10.80;99.90
17170;DHT22;8700;48.222;16.342;2024-03-23T17:47:34;10.70;99.90
17170;DHT22;8700;48.222;16.342;2024-03-23T17:51:04;10.40;99.90
17170;DHT22;8700;48.222;16.342;2024-03-23T17:54:25;10.40;99.90
17170;DHT22;8700;48.222;16.342;2024-03-23T17:57:46;10.30;99.90
17170;DHT22;8700;48.222;16.342;2024-03-23T18:01:07;10.30;99.90
17170;DHT22;8700;48.222;16.342;2024-03-23T18:04:28;10.10;99.90
17170;DHT22;8700;48.222;16.342;2024-03-23T18:07:51;10.20;99.90
17170;DHT22;8700;48.222;16.342;2024-03-23T18:11:12;10.50;99.90
17170;DHT22;8700;48.222;16.342;2024-03-23T18:14:33;10.40;99.90
17170;DHT22;8700;48.222;16.342;2024-03-23T18:17:54;10.30;99.90
17170;DHT22;8700;48.222;16.342;2024-03-23T18:21:14;10.50;99.90
17170;DHT22;8700;48.222;16.342;2024-03-23T18:24:36;10.40;99.90
17170;DHT22;8700;48.222;16.342;2024-03-23T18:27:57;10.30;99.90
17170;DHT22;8700;48.222;16.342;2024-03-23T18:31:19;10.20;99.90
17170;DHT22;8700;48.222;16.342;2024-03-23T18:34:40;10.20;99.90
17170;DHT22;8700;48.222;16.342;2024-03-23T18:38:00;10.40;99.90
17170;DHT22;8700;48.222;16.342;2024-03-23T18:41:23;10.40;99.90
17170;DHT22;8700;48.222;16.342;2024-03-23T18:44:43;10.40;99.90
17170;DHT22;8700;48.222;16.342;2024-03-23T18:48:05;10.40;99.90
17170;DHT22;8700;48.222;16.342;2024-03-23T18:51:26;10.30;99.90
17170;DHT22;8700;48.222;16.342;2024-03-23T18:54:48;10.40;99.90
17170;DHT22;8700;48.222;16.342;2024-03-23T18:58:10;10.70;99.90
17170;DHT22;8700;48.222;16.342;2024-03-23T19:01:30;10.40;99.90
17170;DHT22;8700;48.222;16.342;2024-03-23T19:04:52;10.10;99.90
17170;DHT22;8700;48.222;16.342;2024-03-23T19:08:14;10.30;99.90
17170;DHT22;8700;48.222;16.342;2024-03-23T19:11:37;10.40;99.90
17170;DHT22;8700;48.222;16.342;2024-03-23T19:14:59;10.50;99.90
17170;DHT22;8700;48.222;16.342;2024-03-23T19:18:20;10.60;99.90
17170;DHT22;8700;48.222;16.342;2024-03-23T19:21:41;10.40;99.90
17170;DHT22;8700;48.222;16.342;2024-03-23T19:25:02;10.50;99.90
17170;DHT22;8700;48.222;16.342;2024-03-23T19:28:24;10.10;99.90
17170;DHT22;8700;48.222;16.342;2024-03-23T19:31:46;10.00;99.90
17170;DHT22;8700;48.222;16.342;2024-03-23T19:35:07;10.00;99.90
17170;DHT22;8700;48.222;16.342;2024-03-23T19:38:29;9.70;99.90
17170;DHT22;8700;48.222;16.342;2024-03-23T19:41:50;9.70;99.90
17170;DHT22;8700;48.222;16.342;2024-03-23T19:45:10;9.60;99.90
17170;DHT22;8700;48.222;16.342;2024-03-23T19:48:33;9.90;99.90
17170;DHT22;8700;48.222;16.342;2024-03-23T19:51:53;10.00;99.90
17170;DHT22;8700;48.222;16.342;2024-03-23T19:55:15;10.10;99.90
17170;DHT22;8700;48.222;16.342;2024-03-23T19:58:36;10.20;99.90
17170;DHT22;8700;48.222;16.342;2024-03-23T20:01:57;10.10;99.90
17170;DHT22;8700;48.222;16.342;2024-03-23T20:05:19;9.50;99.90
17170;DHT22;8700;48.222;16.342;2024-03-23T20:08:41;9.40;99.90
17170;DHT22;8700;48.222;16.342;2024-03-23T20:12:01;9.50;99.90
17170;DHT22;8700;48.222;16.342;2024-03-23T20:15:23;9.30;99.90
17170;DHT22;8700;48.222;16.342;2024-03-23T20:18:43;9.30;99.90
17170;DHT22;8700;48.222;16.342;2024-03-23T20:22:06;9.10;99.90
17170;DHT22;8700;48.222;16.342;2024-03-23T20:25:26;9.40;99.90
17170;DHT22;8700;48.222;16.342;2024-03-23T20:28:47;9.60;99.90
17170;DHT22;8700;48.222;16.342;2024-03-23T20:32:08;9.70;99.90
17170;DHT22;8700;48.222;16.342;2024-03-23T20:35:30;9.80;99.90
17170;DHT22;8700;48.222;16.342;2024-03-23T20:38:52;9.80;99.90
17170;DHT22;8700;48.222;16.342;2024-03-23T20:42:13;9.40;99.90
17170;DHT22;8700;48.222;16.342;2024-03-23T20:45:34;9.10;99.90
17170;DHT22;8700;48.222;16.342;2024-03-23T20:48:55;8.90;99.90
17170;DHT22;8700;48.222;16.342;2024-03-23T20:52:16;9.00;99.90
17170;DHT22;8700;48.222;16.342;2024-03-23T20:55:38;9.00;99.90
17170;DHT22;8700;48.222;16.342;2024-03-23T20:58:59;8.90;99.90
17170;DHT22;8700;48.222;16.342;2024-03-23T21:02:19;8.90;99.90
17170;DHT22;8700;48.222;16.342;2024-03-23T21:05:41;8.80;99.90
17170;DHT22;8700;48.222;16.342;2024-03-23T21:09:02;8.90;99.90
17170;DHT22;8700;48.222;16.342;2024-03-23T21:12:28;8.70;99.90
17170;DHT22;8700;48.222;16.342;2024-03-23T21:15:50;8.70;99.90
17170;DHT22;8700;48.222;16.342;2024-03-23T21:19:11;8.80;99.90
17170;DHT22;8700;48.222;16.342;2024-03-23T21:22:32;8.80;99.90
17170;DHT22;8700;48.222;16.342;2024-03-23T21:25:56;9.00;99.90
17170;DHT22;8700;48.222;16.342;2024-03-23T21:29:18;9.00;99.90
17170;DHT22;8700;48.222;16.342;2024-03-23T21:32:38;9.00;99.90
17170;DHT22;8700;48.222;16.342;2024-03-23T21:36:00;8.70;99.90
17170;DHT22;8700;48.222;16.342;2024-03-23T21:39:21;9.00;99.90
17170;DHT22;8700;48.222;16.342;2024-03-23T21:42:42;9.20;99.90
17170;DHT22;8700;48.222;16.342;2024-03-23T21:46:05;9.20;99.90
17170;DHT22;8700;48.222;16.342;2024-03-23T21:49:27;9.10;99.90
17170;DHT22;8700;48.222;16.342;2024-03-23T21:52:49;8.90;99.90
17170;DHT22;8700;48.222;16.342;2024-03-23T21:56:09;9.20;99.90
17170;DHT22;8700;48.222;16.342;2024-03-23T21:59:30;9.50;99.90
17170;DHT22;8700;48.222;16.342;2024-03-23T22:02:54;9.40;99.90
17170;DHT22;8700;48.222;16.342;2024-03-23T22:06:15;9.20;99.90
17170;DHT22;8700;48.222;16.342;2024-03-23T22:09:36;9.10;99.90
17170;DHT22;8700;48.222;16.342;2024-03-23T22:12:57;9.20;99.90